sensor_id;sensor_type;location;lat;lon;timestamp;temperature;humidity
40153;DHT22;26371;56.992;23.912;2023-07-29T00:00:56;14.70;99.90
40153;DHT22;26371;56.992;23.912;2023-07-29T00:03:24;14.70;99.90
40153;DHT22;26371;56.992;23.912;2023-07-29T00:05:53;14.70;99.90
40153;DHT22;26371;56.992;23.912;2023-07-29T00:08:21;14.60;99.90
40153;DHT22;26371;56.992;23.912;2023-07-29T00:10:50;14.60;99.90
40153;DHT22;26371;56.992;23.912;2023-07-29T00:13:18;14.60;99.90
40153;DHT22;26371;56.992;23.912;2023-07-29T00:15:48;14.60;99.90
40153;DHT22;26371;56.992;23.912;2023-07-29T00:18:18;14.60;99.90
40153;DHT22;26371;56.992;23.912;2023-07-29T00:20:46;14.60;99.90
40153;DHT22;26371;56.992;23.912;2023-07-29T00:23:15;14.60;99.90
40153;DHT22;26371;56.992;23.912;2023-07-29T00:25:43;14.60;99.90
40153;DHT22;26371;56.992;23.912;2023-07-29T00:28:11;14.60;99.90
40153;DHT22;26371;56.992;23.912;2023-07-29T00:30:40;14.60;99.90
40153;DHT22;26371;56.992;23.912;2023-07-29T00:33:08;14.60;99.90
40153;DHT22;26371;56.992;23.912;2023-07-29T00:35:39;14.60;99.90
40153;DHT22;26371;56.992;23.912;2023-07-29T00:38:07;14.60;99.90
40153;DHT22;26371;56.992;23.912;2023-07-29T00:40:36;14.50;99.90
40153;DHT22;26371;56.992;23.912;2023-07-29T00:43:04;14.50;99.90
40153;DHT22;26371;56.992;23.912;2023-07-29T00:45:35;14.60;99.90
40153;DHT22;26371;56.992;23.912;2023-07-29T00:48:04;14.60;99.90
40153;DHT22;26371;56.992;23.912;2023-07-29T00:50:33;14.50;99.90
40153;DHT22;26371;56.992;23.912;2023-07-29T00:53:02;14.50;99.90
40153;DHT22;26371;56.992;23.912;2023-07-29T00:55:31;14.50;99.90
40153;DHT22;26371;56.992;23.912;2023-07-29T00:58:00;14.50;99.90
40153;DHT22;26371;56.992;23.912;2023-07-29T01:00:28;14.50;99.90
40153;DHT22;26371;56.992;23.912;2023-07-29T01:02:56;14.40;99.90
40153;DHT22;26371;56.992;23.912;2023-07-29T01:05:26;14.40;99.90
40153;DHT22;26371;56.992;23.912;2023-07-29T01:07:58;14.40;99.90
40153;DHT22;26371;56.992;23.912;2023-07-29T01:10:40;14.40;99.90
40153;DHT22;26371;56.992;23.912;2023-07-29T01:13:15;14.40;99.90
40153;DHT22;26371;56.992;23.912;2023-07-29T01:15:46;14.30;99.90
40153;DHT22;26371;56.992;23.912;2023-07-29T01:18:18;14.30;99.90
40153;DHT22;26371;56.992;23.912;2023-07-29T01:20:47;14.20;99.90
40153;DHT22;26371;56.992;23.912;2023-07-29T01:23:16;14.20;99.90
40153;DHT22;26371;56.992;23.912;2023-07-29T01:25:45;14.20;99.90
40153;DHT22;26371;56.992;23.912;2023-07-29T01:28:14;14.20;99.90
40153;DHT22;26371;56.992;23.912;2023-07-29T01:30:43;14.20;99.90
40153;DHT22;26371;56.992;23.912;2023-07-29T01:33:14;14.10;99.90
40153;DHT22;26371;56.992;23.912;2023-07-29T01:35:45;14.10;99.90
40153;DHT22;26371;56.992;23.912;2023-07-29T01:38:14;14.10;99.90
40153;DHT22;26371;56.992;23.912;2023-07-29T01:40:46;14.10;99.90
40153;DHT22;26371;56.992;23.912;2023-07-29T01:43:15;14.00;99.90
40153;DHT22;26371;56.992;23.912;2023-07-29T01:45:45;14.10;99.90
40153;DHT22;26371;56.992;23.912;2023-07-29T01:48:14;14.00;99.90
40153;DHT22;26371;56.992;23.912;2023-07-29T01:50:42;14.00;99.90
40153;DHT22;26371;56.992;23.912;2023-07-29T01:53:11;14.00;99.90
40153;DHT22;26371;56.992;23.912;2023-07-29T01:55:39;14.00;99.90
40153;DHT22;26371;56.992;23.912;2023-07-29T01:58:09;14.00;99.90
40153;DHT22;26371;56.992;23.912;2023-07-29T02:00:40;14.00;99.90
40153;DHT22;26371;56.992;23.912;2023-07-29T02:03:08;13.90;99.90
40153;DHT22;26371;56.992;23.912;2023-07-29T02:05:36;13.90;99.90
40153;DHT22;26371;56.992;23.912;2023-07-29T02:08:08;13.90;99.90
40153;DHT22;26371;56.992;23.912;2023-07-29T02:10:37;13.90;99.90
40153;DHT22;26371;56.992;23.912;2023-07-29T02:13:06;13.90;99.90
40153;DHT22;26371;56.992;23.912;2023-07-29T02:15:35;13.80;99.90
40153;DHT22;26371;56.992;23.912;2023-07-29T02:18:04;13.80;99.90
40153;DHT22;26371;56.992;23.912;2023-07-29T02:20:33;13.80;99.90
40153;DHT22;26371;56.992;23.912;2023-07-29T02:23:02;13.80;99.90
40153;DHT22;26371;56.992;23.912;2023-07-29T02:25:30;13.80;99.90
40153;DHT22;26371;56.992;23.912;2023-07-29T02:27:58;13.80;99.90
40153;DHT22;26371;56.992;23.912;2023-07-29T02:30:27;13.80;99.90
40153;DHT22;26371;56.992;23.912;2023-07-29T02:32:57;13.80;99.90
40153;DHT22;26371;56.992;23.912;2023-07-29T02:35:26;13.80;99.90
40153;DHT22;26371;56.992;23.912;2023-07-29T02:37:55;13.70;99.90
40153;DHT22;26371;56.992;23.912;2023-07-29T02:40:24;13.70;99.90
40153;DHT22;26371;56.992;23.912;2023-07-29T02:42:53;13.70;99.90
40153;DHT22;26371;56.992;23.912;2023-07-29T02:45:22;13.70;99.90
40153;DHT22;26371;56.992;23.912;2023-07-29T02:47:54;13.70;99.90
40153;DHT22;26371;56.992;23.912;2023-07-29T02:50:24;13.70;99.90
40153;DHT22;26371;56.992;23.912;2023-07-29T02:52:52;13.60;99.90
40153;DHT22;26371;56.992;23.912;2023-07-29T02:55:20;13.60;99.90
40153;DHT22;26371;56.992;23.912;2023-07-29T03:00:45;13.60;99.90
40153;DHT22;26371;56.992;23.912;2023-07-29T03:03:17;13.60;99.90
40153;DHT22;26371;56.992;23.912;2023-07-29T03:05:48;13.60;99.90
40153;DHT22;26371;56.992;23.912;2023-07-29T03:08:16;13.60;99.90
40153;DHT22;26371;56.992;23.912;2023-07-29T03:10:46;13.60;99.90
40153;DHT22;26371;56.992;23.912;2023-07-29T03:13:22;13.60;99.90
40153;DHT22;26371;56.992;23.912;2023-07-29T03:15:50;13.60;99.90
40153;DHT22;26371;56.992;23.912;2023-07-29T03:18:19;13.60;99.90
40153;DHT22;26371;56.992;23.912;2023-07-29T03:20:50;13.60;99.90
40153;DHT22;26371;56.992;23.912;2023-07-29T03:23:18;13.60;99.90
40153;DHT22;26371;56.992;23.912;2023-07-29T03:25:48;13.50;99.90
40153;DHT22;26371;56.992;23.912;2023-07-29T03:28:16;13.60;99.90
40153;DHT22;26371;56.992;23.912;2023-07-29T03:30:45;13.60;99.90
40153;DHT22;26371;56.992;23.912;2023-07-29T03:33:13;13.60;99.90
40153;DHT22;26371;56.992;23.912;2023-07-29T03:35:42;13.60;99.90
40153;DHT22;26371;56.992;23.912;2023-07-29T03:38:13;13.70;99.90
40153;DHT22;26371;56.992;23.912;2023-07-29T03:40:42;13.70;99.90
40153;DHT22;26371;56.992;23.912;2023-07-29T03:43:10;13.70;99.90
40153;DHT22;26371;56.992;23.912;2023-07-29T03:45:39;13.70;99.90
40153;DHT22;26371;56.992;23.912;2023-07-29T03:48:11;13.70;99.90
40153;DHT22;26371;56.992;23.912;2023-07-29T03:50:40;13.80;99.90
40153;DHT22;26371;56.992;23.912;2023-07-29T03:53:08;13.90;99.90
40153;DHT22;26371;56.992;23.912;2023-07-29T03:55:39;14.00;99.90
40153;DHT22;26371;56.992;23.912;2023-07-29T03:58:07;14.00;99.90
40153;DHT22;26371;56.992;23.912;2023-07-29T04:00:35;14.10;99.90
40153;DHT22;26371;56.992;23.912;2023-07-29T04:03:04;14.10;99.90
40153;DHT22;26371;56.992;23.912;2023-07-29T04:05:33;14.20;99.90
40153;DHT22;26371;56.992;23.912;2023-07-29T04:08:01;14.10;99.90
40153;DHT22;26371;56.992;23.912;2023-07-29T04:10:30;14.10;99.90
40153;DHT22;26371;56.992;23.912;2023-07-29T04:13:00;14.00;99.90
40153;DHT22;26371;56.992;23.912;2023-07-29T04:15:34;14.00;99.90
40153;DHT22;26371;56.992;23.912;2023-07-29T04:18:03;14.00;99.90
40153;DHT22;26371;56.992;23.912;2023-07-29T04:20:31;14.10;99.90
40153;DHT22;26371;56.992;23.912;2023-07-29T04:23:00;14.20;99.90
40153;DHT22;26371;56.992;23.912;2023-07-29T04:25:29;14.20;99.90
40153;DHT22;26371;56.992;23.912;2023-07-29T04:27:57;14.30;99.90
40153;DHT22;26371;56.992;23.912;2023-07-29T04:30:27;14.30;99.90
40153;DHT22;26371;56.992;23.912;2023-07-29T04:32:56;14.30;99.90
40153;DHT22;26371;56.992;23.912;2023-07-29T04:35:24;14.30;99.90
40153;DHT22;26371;56.992;23.912;2023-07-29T04:37:52;14.40;99.90
40153;DHT22;26371;56.992;23.912;2023-07-29T04:40:21;14.50;99.90
40153;DHT22;26371;56.992;23.912;2023-07-29T04:42:51;14.60;99.90
40153;DHT22;26371;56.992;23.912;2023-07-29T04:45:20;14.60;99.90
40153;DHT22;26371;56.992;23.912;2023-07-29T04:47:51;14.70;99.90
40153;DHT22;26371;56.992;23.912;2023-07-29T04:50:24;14.70;99.90
40153;DHT22;26371;56.992;23.912;2023-07-29T04:52:52;14.90;99.90
40153;DHT22;26371;56.992;23.912;2023-07-29T04:55:20;14.90;99.90
40153;DHT22;26371;56.992;23.912;2023-07-29T04:57:49;15.00;99.90
40153;DHT22;26371;56.992;23.912;2023-07-29T05:00:17;15.10;99.90
40153;DHT22;26371;56.992;23.912;2023-07-29T05:02:46;15.10;99.90
40153;DHT22;26371;56.992;23.912;2023-07-29T05:05:16;15.20;99.90
40153;DHT22;26371;56.992;23.912;2023-07-29T05:07:44;15.30;99.90
40153;DHT22;26371;56.992;23.912;2023-07-29T05:10:13;15.30;99.90
40153;DHT22;26371;56.992;23.912;2023-07-29T05:12:41;15.30;99.90
40153;DHT22;26371;56.992;23.912;2023-07-29T05:15:10;15.30;99.90
40153;DHT22;26371;56.992;23.912;2023-07-29T05:17:38;15.30;99.90
40153;DHT22;26371;56.992;23.912;2023-07-29T05:20:07;15.30;99.90
40153;DHT22;26371;56.992;23.912;2023-07-29T05:22:37;15.30;99.90
40153;DHT22;26371;56.992;23.912;2023-07-29T05:25:06;15.40;99.90
40153;DHT22;26371;56.992;23.912;2023-07-29T05:27:35;15.40;99.90
40153;DHT22;26371;56.992;23.912;2023-07-29T05:30:04;15.50;99.90
40153;DHT22;26371;56.992;23.912;2023-07-29T05:32:34;15.60;99.90
40153;DHT22;26371;56.992;23.912;2023-07-29T05:35:03;15.60;99.90
40153;DHT22;26371;56.992;23.912;2023-07-29T05:37:31;15.70;99.90
40153;DHT22;26371;56.992;23.912;2023-07-29T05:40:02;15.70;99.90
40153;DHT22;26371;56.992;23.912;2023-07-29T05:42:35;15.70;99.90
40153;DHT22;26371;56.992;23.912;2023-07-29T05:45:04;15.80;99.90
40153;DHT22;26371;56.992;23.912;2023-07-29T05:47:33;15.80;99.90
40153;DHT22;26371;56.992;23.912;2023-07-29T05:50:03;15.80;99.90
40153;DHT22;26371;56.992;23.912;2023-07-29T05:52:32;15.80;99.90
40153;DHT22;26371;56.992;23.912;2023-07-29T05:55:02;15.80;99.90
40153;DHT22;26371;56.992;23.912;2023-07-29T05:57:31;15.80;99.90
40153;DHT22;26371;56.992;23.912;2023-07-29T05:59:59;15.90;99.90
40153;DHT22;26371;56.992;23.912;2023-07-29T06:02:28;15.80;99.90
40153;DHT22;26371;56.992;23.912;2023-07-29T06:04:56;15.90;99.90
40153;DHT22;26371;56.992;23.912;2023-07-29T06:07:26;15.90;99.90
40153;DHT22;26371;56.992;23.912;2023-07-29T06:09:58;15.90;99.90
40153;DHT22;26371;56.992;23.912;2023-07-29T06:12:27;15.90;99.90
40153;DHT22;26371;56.992;23.912;2023-07-29T06:14:56;15.80;99.90
40153;DHT22;26371;56.992;23.912;2023-07-29T06:17:25;15.80;99.90
40153;DHT22;26371;56.992;23.912;2023-07-29T06:19:53;15.80;99.90
40153;DHT22;26371;56.992;23.912;2023-07-29T06:22:22;15.90;99.90
40153;DHT22;26371;56.992;23.912;2023-07-29T06:24:50;16.00;99.90
40153;DHT22;26371;56.992;23.912;2023-07-29T06:27:19;16.20;99.90
40153;DHT22;26371;56.992;23.912;2023-07-29T06:29:48;16.30;99.90
40153;DHT22;26371;56.992;23.912;2023-07-29T06:32:17;16.40;99.90
40153;DHT22;26371;56.992;23.912;2023-07-29T06:34:45;16.60;99.90
40153;DHT22;26371;56.992;23.912;2023-07-29T06:37:14;16.70;99.90
40153;DHT22;26371;56.992;23.912;2023-07-29T06:39:42;16.70;99.90
40153;DHT22;26371;56.992;23.912;2023-07-29T06:42:11;16.80;99.90
40153;DHT22;26371;56.992;23.912;2023-07-29T06:44:39;16.90;99.90
40153;DHT22;26371;56.992;23.912;2023-07-29T06:47:09;17.00;99.90
40153;DHT22;26371;56.992;23.912;2023-07-29T06:49:37;17.10;99.90
40153;DHT22;26371;56.992;23.912;2023-07-29T06:52:06;17.10;99.90
40153;DHT22;26371;56.992;23.912;2023-07-29T06:54:34;17.20;99.90
40153;DHT22;26371;56.992;23.912;2023-07-29T06:57:03;17.30;99.90
40153;DHT22;26371;56.992;23.912;2023-07-29T06:59:32;17.30;99.90
40153;DHT22;26371;56.992;23.912;2023-07-29T07:02:00;17.30;99.90
40153;DHT22;26371;56.992;23.912;2023-07-29T07:04:30;17.40;99.90
40153;DHT22;26371;56.992;23.912;2023-07-29T07:06:58;17.40;99.90
40153;DHT22;26371;56.992;23.912;2023-07-29T07:09:27;17.40;99.90
40153;DHT22;26371;56.992;23.912;2023-07-29T07:11:56;17.50;99.90
40153;DHT22;26371;56.992;23.912;2023-07-29T07:14:24;17.60;99.90
40153;DHT22;26371;56.992;23.912;2023-07-29T07:16:52;17.70;99.90
40153;DHT22;26371;56.992;23.912;2023-07-29T07:19:22;17.70;99.90
40153;DHT22;26371;56.992;23.912;2023-07-29T07:21:52;17.70;99.90
40153;DHT22;26371;56.992;23.912;2023-07-29T07:24:20;17.60;99.90
40153;DHT22;26371;56.992;23.912;2023-07-29T07:26:48;17.60;99.90
40153;DHT22;26371;56.992;23.912;2023-07-29T07:29:17;17.60;99.90
40153;DHT22;26371;56.992;23.912;2023-07-29T07:31:49;17.70;99.90
40153;DHT22;26371;56.992;23.912;2023-07-29T07:34:18;17.80;99.90
40153;DHT22;26371;56.992;23.912;2023-07-29T07:36:46;17.90;99.90
40153;DHT22;26371;56.992;23.912;2023-07-29T07:39:17;18.00;99.90
40153;DHT22;26371;56.992;23.912;2023-07-29T07:41:45;18.10;99.90
40153;DHT22;26371;56.992;23.912;2023-07-29T07:44:13;18.20;99.90
40153;DHT22;26371;56.992;23.912;2023-07-29T07:46:44;18.20;99.90
40153;DHT22;26371;56.992;23.912;2023-07-29T07:51:59;18.30;99.90
40153;DHT22;26371;56.992;23.912;2023-07-29T07:54:29;18.40;99.90
40153;DHT22;26371;56.992;23.912;2023-07-29T07:56:57;18.50;99.90
40153;DHT22;26371;56.992;23.912;2023-07-29T07:59:26;18.40;99.90
40153;DHT22;26371;56.992;23.912;2023-07-29T08:01:54;18.60;99.90
40153;DHT22;26371;56.992;23.912;2023-07-29T08:04:22;18.70;99.90
40153;DHT22;26371;56.992;23.912;2023-07-29T08:06:52;18.80;99.90
40153;DHT22;26371;56.992;23.912;2023-07-29T08:09:20;18.80;99.90
40153;DHT22;26371;56.992;23.912;2023-07-29T08:11:50;19.00;99.90
40153;DHT22;26371;56.992;23.912;2023-07-29T08:14:18;19.10;99.90
40153;DHT22;26371;56.992;23.912;2023-07-29T08:16:47;19.10;99.90
40153;DHT22;26371;56.992;23.912;2023-07-29T08:19:15;18.80;99.90
40153;DHT22;26371;56.992;23.912;2023-07-29T08:21:46;18.60;99.90
40153;DHT22;26371;56.992;23.912;2023-07-29T08:24:16;18.50;99.90
40153;DHT22;26371;56.992;23.912;2023-07-29T08:26:44;18.30;99.90
40153;DHT22;26371;56.992;23.912;2023-07-29T08:29:17;18.20;99.90
40153;DHT22;26371;56.992;23.912;2023-07-29T08:31:45;18.10;99.90
40153;DHT22;26371;56.992;23.912;2023-07-29T08:34:13;18.10;99.90
40153;DHT22;26371;56.992;23.912;2023-07-29T08:36:42;18.10;99.90
40153;DHT22;26371;56.992;23.912;2023-07-29T08:39:14;18.30;99.90
40153;DHT22;26371;56.992;23.912;2023-07-29T08:41:44;18.50;99.90
40153;DHT22;26371;56.992;23.912;2023-07-29T08:44:16;18.70;99.90
40153;DHT22;26371;56.992;23.912;2023-07-29T08:46:47;18.70;99.90
40153;DHT22;26371;56.992;23.912;2023-07-29T08:49:16;18.70;99.90
40153;DHT22;26371;56.992;23.912;2023-07-29T08:51:46;18.50;99.90
40153;DHT22;26371;56.992;23.912;2023-07-29T08:54:15;18.60;99.90
40153;DHT22;26371;56.992;23.912;2023-07-29T08:56:43;18.70;99.90
40153;DHT22;26371;56.992;23.912;2023-07-29T08:59:12;19.00;99.90
40153;DHT22;26371;56.992;23.912;2023-07-29T09:01:44;19.10;99.90
40153;DHT22;26371;56.992;23.912;2023-07-29T09:04:14;19.20;99.90
40153;DHT22;26371;56.992;23.912;2023-07-29T09:09:12;19.40;99.90
40153;DHT22;26371;56.992;23.912;2023-07-29T09:11:40;19.50;99.90
40153;DHT22;26371;56.992;23.912;2023-07-29T09:14:08;19.70;99.90
40153;DHT22;26371;56.992;23.912;2023-07-29T09:16:37;19.80;99.90
40153;DHT22;26371;56.992;23.912;2023-07-29T09:19:06;19.80;99.90
40153;DHT22;26371;56.992;23.912;2023-07-29T09:21:37;19.90;99.90
40153;DHT22;26371;56.992;23.912;2023-07-29T09:24:06;19.90;99.90
40153;DHT22;26371;56.992;23.912;2023-07-29T09:26:35;20.00;99.90
40153;DHT22;26371;56.992;23.912;2023-07-29T09:29:06;20.00;99.90
40153;DHT22;26371;56.992;23.912;2023-07-29T09:31:34;20.10;99.90
40153;DHT22;26371;56.992;23.912;2023-07-29T09:34:03;20.30;99.90
40153;DHT22;26371;56.992;23.912;2023-07-29T09:36:32;20.20;99.90
40153;DHT22;26371;56.992;23.912;2023-07-29T09:39:10;20.40;99.90
40153;DHT22;26371;56.992;23.912;2023-07-29T09:41:38;20.40;99.90
40153;DHT22;26371;56.992;23.912;2023-07-29T09:44:06;20.50;99.90
40153;DHT22;26371;56.992;23.912;2023-07-29T09:46:36;20.60;99.90
40153;DHT22;26371;56.992;23.912;2023-07-29T09:49:06;20.60;99.90
40153;DHT22;26371;56.992;23.912;2023-07-29T09:51:36;20.60;99.90
40153;DHT22;26371;56.992;23.912;2023-07-29T09:54:07;20.60;99.90
40153;DHT22;26371;56.992;23.912;2023-07-29T09:56:39;20.50;99.90
40153;DHT22;26371;56.992;23.912;2023-07-29T09:59:09;20.60;99.90
40153;DHT22;26371;56.992;23.912;2023-07-29T10:01:37;20.60;99.90
40153;DHT22;26371;56.992;23.912;2023-07-29T10:04:07;20.60;99.90
40153;DHT22;26371;56.992;23.912;2023-07-29T10:06:39;20.70;99.90
40153;DHT22;26371;56.992;23.912;2023-07-29T10:09:09;20.80;99.90
40153;DHT22;26371;56.992;23.912;2023-07-29T10:34:17;21.20;99.90
40153;DHT22;26371;56.992;23.912;2023-07-29T10:36:47;21.30;99.90
40153;DHT22;26371;56.992;23.912;2023-07-29T10:39:16;21.20;99.90
40153;DHT22;26371;56.992;23.912;2023-07-29T10:41:57;21.20;99.90
40153;DHT22;26371;56.992;23.912;2023-07-29T10:47:12;21.30;99.90
40153;DHT22;26371;56.992;23.912;2023-07-29T10:49:43;21.30;99.90
40153;DHT22;26371;56.992;23.912;2023-07-29T10:52:12;21.40;99.90
40153;DHT22;26371;56.992;23.912;2023-07-29T10:54:44;21.50;99.90
40153;DHT22;26371;56.992;23.912;2023-07-29T10:57:14;21.60;99.90
40153;DHT22;26371;56.992;23.912;2023-07-29T10:59:53;21.50;99.90
40153;DHT22;26371;56.992;23.912;2023-07-29T11:02:22;21.60;99.90
40153;DHT22;26371;56.992;23.912;2023-07-29T11:04:57;21.60;99.90
40153;DHT22;26371;56.992;23.912;2023-07-29T11:07:26;21.70;99.90
40153;DHT22;26371;56.992;23.912;2023-07-29T11:09:55;21.70;99.90
40153;DHT22;26371;56.992;23.912;2023-07-29T11:15:18;21.70;99.90
40153;DHT22;26371;56.992;23.912;2023-07-29T11:17:48;21.90;99.90
40153;DHT22;26371;56.992;23.912;2023-07-29T11:20:19;21.90;99.90
40153;DHT22;26371;56.992;23.912;2023-07-29T11:22:47;22.00;99.90
40153;DHT22;26371;56.992;23.912;2023-07-29T11:25:17;21.90;99.90
40153;DHT22;26371;56.992;23.912;2023-07-29T11:27:45;22.00;99.90
40153;DHT22;26371;56.992;23.912;2023-07-29T11:30:14;22.00;99.90
40153;DHT22;26371;56.992;23.912;2023-07-29T11:32:44;22.10;99.90
40153;DHT22;26371;56.992;23.912;2023-07-29T11:35:13;22.10;99.90
40153;DHT22;26371;56.992;23.912;2023-07-29T11:37:45;22.20;99.90
40153;DHT22;26371;56.992;23.912;2023-07-29T11:40:14;22.30;99.90
40153;DHT22;26371;56.992;23.912;2023-07-29T11:42:42;22.30;99.90
40153;DHT22;26371;56.992;23.912;2023-07-29T11:45:11;22.30;99.90
40153;DHT22;26371;56.992;23.912;2023-07-29T11:47:43;22.40;99.90
40153;DHT22;26371;56.992;23.912;2023-07-29T11:50:12;22.40;99.90
40153;DHT22;26371;56.992;23.912;2023-07-29T11:52:41;22.50;99.90
40153;DHT22;26371;56.992;23.912;2023-07-29T12:00:11;22.70;99.90
40153;DHT22;26371;56.992;23.912;2023-07-29T12:02:44;22.70;99.90
40153;DHT22;26371;56.992;23.912;2023-07-29T12:05:13;22.70;99.90
40153;DHT22;26371;56.992;23.912;2023-07-29T12:07:43;22.80;99.90
40153;DHT22;26371;56.992;23.912;2023-07-29T12:10:13;22.70;99.90
40153;DHT22;26371;56.992;23.912;2023-07-29T12:12:45;22.80;99.90
40153;DHT22;26371;56.992;23.912;2023-07-29T12:17:45;22.90;99.90
40153;DHT22;26371;56.992;23.912;2023-07-29T12:20:15;22.90;99.90
40153;DHT22;26371;56.992;23.912;2023-07-29T12:22:43;22.90;99.90
40153;DHT22;26371;56.992;23.912;2023-07-29T12:25:11;22.90;99.90
40153;DHT22;26371;56.992;23.912;2023-07-29T12:27:40;22.80;99.90
40153;DHT22;26371;56.992;23.912;2023-07-29T12:30:11;22.80;99.90
40153;DHT22;26371;56.992;23.912;2023-07-29T12:32:46;22.80;99.90
40153;DHT22;26371;56.992;23.912;2023-07-29T12:35:14;22.80;99.90
40153;DHT22;26371;56.992;23.912;2023-07-29T12:37:44;22.80;99.90
40153;DHT22;26371;56.992;23.912;2023-07-29T12:40:22;22.80;99.90
40153;DHT22;26371;56.992;23.912;2023-07-29T12:42:50;22.80;99.90
40153;DHT22;26371;56.992;23.912;2023-07-29T12:45:19;22.80;99.90
40153;DHT22;26371;56.992;23.912;2023-07-29T12:47:51;22.90;99.90
40153;DHT22;26371;56.992;23.912;2023-07-29T12:50:19;22.90;99.90
40153;DHT22;26371;56.992;23.912;2023-07-29T12:57:49;22.90;99.90
40153;DHT22;26371;56.992;23.912;2023-07-29T13:00:17;22.90;99.90
40153;DHT22;26371;56.992;23.912;2023-07-29T13:02:46;22.90;99.90
40153;DHT22;26371;56.992;23.912;2023-07-29T14:49:45;22.90;99.90
40153;DHT22;26371;56.992;23.912;2023-07-29T14:52:13;22.60;99.90
40153;DHT22;26371;56.992;23.912;2023-07-29T14:54:42;22.80;99.90
40153;DHT22;26371;56.992;23.912;2023-07-29T14:57:10;23.00;99.90
40153;DHT22;26371;56.992;23.912;2023-07-29T14:59:39;23.30;99.90
40153;DHT22;26371;56.992;23.912;2023-07-29T15:02:07;23.60;99.90
40153;DHT22;26371;56.992;23.912;2023-07-29T15:04:36;23.60;99.90
40153;DHT22;26371;56.992;23.912;2023-07-29T15:07:06;23.40;99.90
40153;DHT22;26371;56.992;23.912;2023-07-29T15:09:34;23.40;99.90
40153;DHT22;26371;56.992;23.912;2023-07-29T15:12:03;23.60;99.90
40153;DHT22;26371;56.992;23.912;2023-07-29T15:14:32;23.70;99.90
40153;DHT22;26371;56.992;23.912;2023-07-29T15:17:00;23.70;99.90
40153;DHT22;26371;56.992;23.912;2023-07-29T15:19:28;23.80;99.90
40153;DHT22;26371;56.992;23.912;2023-07-29T15:21:57;23.90;99.30
40153;DHT22;26371;56.992;23.912;2023-07-29T15:24:29;23.90;98.60
40153;DHT22;26371;56.992;23.912;2023-07-29T15:26:57;23.80;99.30
40153;DHT22;26371;56.992;23.912;2023-07-29T15:29:26;23.70;99.00
40153;DHT22;26371;56.992;23.912;2023-07-29T15:31:54;23.60;98.80
40153;DHT22;26371;56.992;23.912;2023-07-29T15:34:23;23.60;98.90
40153;DHT22;26371;56.992;23.912;2023-07-29T15:36:52;23.60;98.80
40153;DHT22;26371;56.992;23.912;2023-07-29T15:39:21;23.50;98.90
40153;DHT22;26371;56.992;23.912;2023-07-29T15:41:50;23.50;98.90
40153;DHT22;26371;56.992;23.912;2023-07-29T15:44:19;23.40;99.00
40153;DHT22;26371;56.992;23.912;2023-07-29T15:46:47;23.30;99.50
40153;DHT22;26371;56.992;23.912;2023-07-29T15:49:19;23.20;99.90
40153;DHT22;26371;56.992;23.912;2023-07-29T15:51:47;23.20;99.90
40153;DHT22;26371;56.992;23.912;2023-07-29T15:54:15;23.20;99.90
40153;DHT22;26371;56.992;23.912;2023-07-29T15:56:44;23.20;98.90
40153;DHT22;26371;56.992;23.912;2023-07-29T15:59:13;23.10;99.50
40153;DHT22;26371;56.992;23.912;2023-07-29T16:01:42;23.00;99.90
40153;DHT22;26371;56.992;23.912;2023-07-29T16:04:10;23.10;99.40
40153;DHT22;26371;56.992;23.912;2023-07-29T16:06:39;23.10;99.50
40153;DHT22;26371;56.992;23.912;2023-07-29T16:09:07;23.10;99.60
40153;DHT22;26371;56.992;23.912;2023-07-29T16:11:35;23.00;99.60
40153;DHT22;26371;56.992;23.912;2023-07-29T16:14:04;22.90;99.90
40153;DHT22;26371;56.992;23.912;2023-07-29T16:16:34;22.80;99.90
40153;DHT22;26371;56.992;23.912;2023-07-29T16:19:03;22.70;99.90
40153;DHT22;26371;56.992;23.912;2023-07-29T18:03:52;19.70;99.90
40153;DHT22;26371;56.992;23.912;2023-07-29T18:06:21;19.70;99.90
40153;DHT22;26371;56.992;23.912;2023-07-29T18:08:49;19.60;99.90
40153;DHT22;26371;56.992;23.912;2023-07-29T18:11:17;19.50;99.90
40153;DHT22;26371;56.992;23.912;2023-07-29T18:13:46;19.40;99.90
40153;DHT22;26371;56.992;23.912;2023-07-29T18:16:14;19.40;99.90
40153;DHT22;26371;56.992;23.912;2023-07-29T18:18:46;19.30;99.90
40153;DHT22;26371;56.992;23.912;2023-07-29T18:21:17;19.20;99.90
40153;DHT22;26371;56.992;23.912;2023-07-29T18:23:45;19.10;99.90
40153;DHT22;26371;56.992;23.912;2023-07-29T18:26:14;19.00;99.90
40153;DHT22;26371;56.992;23.912;2023-07-29T18:28:42;18.80;99.90
40153;DHT22;26371;56.992;23.912;2023-07-29T18:31:12;18.80;99.90
40153;DHT22;26371;56.992;23.912;2023-07-29T18:33:40;18.70;99.90
40153;DHT22;26371;56.992;23.912;2023-07-29T18:36:08;18.70;99.90
40153;DHT22;26371;56.992;23.912;2023-07-29T18:38:38;18.60;99.90
40153;DHT22;26371;56.992;23.912;2023-07-29T18:41:08;18.60;99.90
40153;DHT22;26371;56.992;23.912;2023-07-29T18:43:36;18.50;99.90
40153;DHT22;26371;56.992;23.912;2023-07-29T18:46:05;18.40;99.90
40153;DHT22;26371;56.992;23.912;2023-07-29T18:48:35;18.30;99.90
40153;DHT22;26371;56.992;23.912;2023-07-29T18:51:03;18.20;99.90
40153;DHT22;26371;56.992;23.912;2023-07-29T18:53:32;18.10;99.90
40153;DHT22;26371;56.992;23.912;2023-07-29T18:56:02;18.10;99.90
40153;DHT22;26371;56.992;23.912;2023-07-29T18:58:30;18.00;99.90
40153;DHT22;26371;56.992;23.912;2023-07-29T19:00:59;17.90;99.90
40153;DHT22;26371;56.992;23.912;2023-07-29T19:03:27;17.80;99.90
40153;DHT22;26371;56.992;23.912;2023-07-29T19:05:56;17.80;99.90
40153;DHT22;26371;56.992;23.912;2023-07-29T19:08:24;17.70;99.90
40153;DHT22;26371;56.992;23.912;2023-07-29T19:10:53;17.70;99.90
40153;DHT22;26371;56.992;23.912;2023-07-29T19:13:23;17.60;99.90
40153;DHT22;26371;56.992;23.912;2023-07-29T19:15:52;17.60;99.90
40153;DHT22;26371;56.992;23.912;2023-07-29T19:18:22;17.50;99.90
40153;DHT22;26371;56.992;23.912;2023-07-29T19:20:50;17.50;99.90
40153;DHT22;26371;56.992;23.912;2023-07-29T19:23:19;17.40;99.90
40153;DHT22;26371;56.992;23.912;2023-07-29T19:30:53;17.10;99.90
40153;DHT22;26371;56.992;23.912;2023-07-29T19:33:21;17.10;99.90
40153;DHT22;26371;56.992;23.912;2023-07-29T19:35:53;17.00;99.90
40153;DHT22;26371;56.992;23.912;2023-07-29T19:38:22;17.00;99.90
40153;DHT22;26371;56.992;23.912;2023-07-29T19:40:50;17.00;99.90
40153;DHT22;26371;56.992;23.912;2023-07-29T19:43:19;17.00;99.90
40153;DHT22;26371;56.992;23.912;2023-07-29T19:45:47;17.00;99.90
40153;DHT22;26371;56.992;23.912;2023-07-29T19:48:37;16.90;99.90